Time,TemperatureF,DewpointF,PressureIn,WindDirection,WindDirectionDegrees,WindSpeedMPH,WindSpeedGustMPH,Humidity,HourlyPrecipIn,Conditions,Clouds,dailyrainin,SoftwareType,DateUTC
2013-09-16 00:05:00,55.3,49.6,29.92,NW,322,4.0,4.0,81,0.00,,,0.00,Wunderground v.1.15,2013-09-16 04:05:00,
2013-09-16 00:26:00,58.0,48.6,29.91,WNW,285,3.0,6.0,71,0.00,,,0.00,Wunderground v.1.15,2013-09-16 04:26:00,
2013-09-16 00:46:00,58.9,48.0,29.92,West,275,3.0,3.0,67,0.00,,,0.00,Wunderground v.1.15,2013-09-16 04:46:00,
2013-09-16 00:55:00,58.7,48.6,29.92,West,281,2.0,3.0,69,0.00,,,0.00,Wunderground v.1.15,2013-09-16 04:55:00,
2013-09-16 01:06:00,58.4,47.9,29.91,West,281,1.0,4.0,68,0.00,,,0.00,Wunderground v.1.15,2013-09-16 05:06:00,
2013-09-16 01:15:00,58.3,48.2,29.92,West,281,1.0,1.0,69,0.00,,,0.00,Wunderground v.1.15,2013-09-16 05:15:00,
2013-09-16 01:25:00,58.1,48.4,29.92,West,281,1.0,2.0,70,0.00,,,0.00,Wunderground v.1.15,2013-09-16 05:25:00,
2013-09-16 01:56:00,56.3,48.8,29.91,West,281,0.0,2.0,76,0.00,,,0.00,Wunderground v.1.15,2013-09-16 05:56:00,
2013-09-16 02:16:00,54.8,49.4,29.90,West,281,1.0,4.0,82,0.00,,,0.00,Wunderground v.1.15,2013-09-16 06:16:00,
2013-09-16 02:26:00,53.2,49.7,29.90,West,281,2.0,4.0,88,0.00,,,0.00,Wunderground v.1.15,2013-09-16 06:26:00,
2013-09-16 02:35:00,53.6,49.2,29.90,West,281,0.0,0.0,85,0.00,,,0.00,Wunderground v.1.15,2013-09-16 06:35:00,
2013-09-16 02:56:00,54.5,47.4,29.89,North,9,1.0,2.0,77,0.00,,,0.00,Wunderground v.1.15,2013-09-16 06:56:00,
2013-09-16 03:06:00,56.6,46.5,29.89,West,265,3.0,3.0,69,0.00,,,0.00,Wunderground v.1.15,2013-09-16 07:06:00,
2013-09-16 03:16:00,55.0,50.3,29.92,WSW,257,3.0,3.0,84,0.00,,,0.00,Wunderground v.1.15,2013-09-16 07:16:00,
2013-09-16 03:26:00,53.9,49.5,29.92,West,262,2.0,4.0,85,0.00,,,0.00,Wunderground v.1.15,2013-09-16 07:26:00,
2013-09-16 03:35:00,54.2,48.2,29.92,West,262,3.0,3.0,80,0.00,,,0.00,Wunderground v.1.15,2013-09-16 07:35:00,
2013-09-16 03:46:00,55.3,47.2,29.92,WNW,302,2.0,3.0,74,0.00,,,0.00,Wunderground v.1.15,2013-09-16 07:46:00,
2013-09-16 03:55:00,57.0,46.5,29.92,NW,305,2.0,3.0,68,0.00,,,0.00,Wunderground v.1.15,2013-09-16 07:55:00,
2013-09-16 04:26:00,56.2,47.3,29.91,WNW,301,0.0,0.0,72,0.00,,,0.00,Wunderground v.1.15,2013-09-16 08:26:00,
2013-09-16 04:36:00,56.0,48.5,29.91,WNW,301,0.0,0.0,76,0.00,,,0.00,Wunderground v.1.15,2013-09-16 08:36:00,
2013-09-16 04:46:00,55.4,48.7,29.91,WNW,301,0.0,0.0,78,0.00,,,0.00,Wunderground v.1.15,2013-09-16 08:46:00,
2013-09-16 04:56:00,54.7,49.3,29.91,WNW,301,0.0,0.0,82,0.00,,,0.00,Wunderground v.1.15,2013-09-16 08:56:00,
2013-09-16 05:06:00,54.4,49.3,29.90,WNW,301,0.0,0.0,83,0.00,,,0.00,Wunderground v.1.15,2013-09-16 09:06:00,
2013-09-16 05:15:00,53.9,49.8,29.91,WNW,301,1.0,2.0,86,0.00,,,0.00,Wunderground v.1.15,2013-09-16 09:15:00,
2013-09-16 05:26:00,53.6,50.4,29.91,WNW,301,1.0,1.0,89,0.00,,,0.01,Wunderground v.1.15,2013-09-16 09:26:00,
2013-09-16 05:36:00,52.9,50.6,29.92,WNW,301,0.0,2.0,92,0.05,,,0.02,Wunderground v.1.15,2013-09-16 09:36:00,
2013-09-16 05:46:00,52.8,50.2,29.93,WNW,301,1.0,2.0,91,0.04,,,0.02,Wunderground v.1.15,2013-09-16 09:46:00,
2013-09-16 05:55:00,53.1,49.6,29.93,WNW,301,3.0,12.0,88,0.00,,,0.02,Wunderground v.1.15,2013-09-16 09:55:00,
2013-09-16 06:06:00,53.3,48.6,29.93,West,280,5.0,5.0,84,0.00,,,0.02,Wunderground v.1.15,2013-09-16 10:06:00,
2013-09-16 06:16:00,53.2,47.5,29.93,WNW,296,4.0,4.0,81,0.00,,,0.02,Wunderground v.1.15,2013-09-16 10:16:00,
2013-09-16 06:25:00,53.1,48.1,29.93,West,275,4.0,4.0,83,0.00,,,0.02,Wunderground v.1.15,2013-09-16 10:25:00,
2013-09-16 06:35:00,52.5,47.8,29.94,WNW,296,3.0,5.0,84,0.00,,,0.02,Wunderground v.1.15,2013-09-16 10:35:00,
2013-09-16 06:46:00,52.3,48.2,29.94,West,263,3.0,3.0,86,0.00,,,0.02,Wunderground v.1.15,2013-09-16 10:46:00,
2013-09-16 06:55:00,52.5,47.8,29.94,WNW,303,2.0,4.0,84,0.00,,,0.02,Wunderground v.1.15,2013-09-16 10:55:00,
2013-09-16 07:05:00,52.8,47.8,29.94,WNW,291,3.0,3.0,83,0.00,,,0.02,Wunderground v.1.15,2013-09-16 11:05:00,
2013-09-16 07:16:00,52.5,48.4,29.94,WNW,291,2.0,2.0,86,0.00,,,0.02,Wunderground v.1.15,2013-09-16 11:16:00,
2013-09-16 07:26:00,52.2,47.2,29.94,WNW,303,3.0,3.0,83,0.00,,,0.02,Wunderground v.1.15,2013-09-16 11:26:00,
2013-09-16 07:46:00,53.2,47.2,29.94,NNW,346,2.0,2.0,80,0.00,,,0.02,Wunderground v.1.15,2013-09-16 11:46:00,
2013-09-16 07:56:00,53.5,47.1,29.94,WSW,254,2.0,2.0,79,0.00,,,0.02,Wunderground v.1.15,2013-09-16 11:56:00,
2013-09-16 08:06:00,53.8,47.8,29.94,WNW,287,2.0,3.0,80,0.00,,,0.02,Wunderground v.1.15,2013-09-16 12:06:00,
2013-09-16 08:15:00,54.2,47.1,29.94,WNW,300,3.0,3.0,77,0.00,,,0.02,Wunderground v.1.15,2013-09-16 12:15:00,
2013-09-16 08:35:00,54.1,48.4,29.93,WNW,298,1.0,1.0,81,0.00,,,0.02,Wunderground v.1.15,2013-09-16 12:35:00,
2013-09-16 08:45:00,54.4,48.4,29.94,West,262,2.0,2.0,80,0.00,,,0.02,Wunderground v.1.15,2013-09-16 12:45:00,
2013-09-16 08:55:00,54.4,48.7,29.94,West,262,0.0,0.0,81,0.00,,,0.02,Wunderground v.1.15,2013-09-16 12:55:00,
2013-09-16 09:05:00,53.9,50.7,29.94,WSW,258,1.0,1.0,89,0.00,,,0.02,Wunderground v.1.15,2013-09-16 13:05:00,
2013-09-16 09:15:00,53.6,51.3,29.94,WSW,258,0.0,0.0,92,0.00,,,0.02,Wunderground v.1.15,2013-09-16 13:15:00,
2013-09-16 09:26:00,54.4,49.3,29.94,WSW,258,0.0,0.0,83,0.00,,,0.02,Wunderground v.1.15,2013-09-16 13:26:00,
2013-09-16 10:06:00,57.5,47.8,29.94,NNW,329,2.0,3.0,70,0.00,,,0.02,Wunderground v.1.15,2013-09-16 14:06:00,
2013-09-16 10:16:00,57.6,47.5,29.94,WNW,298,3.0,6.0,69,0.00,,,0.02,Wunderground v.1.15,2013-09-16 14:16:00,
2013-09-16 10:25:00,57.0,47.7,29.94,NW,311,6.0,6.0,71,0.00,,,0.02,Wunderground v.1.15,2013-09-16 14:25:00,
2013-09-16 10:35:00,58.0,48.6,29.93,NNW,338,4.0,5.0,71,0.00,,,0.02,Wunderground v.1.15,2013-09-16 14:35:00,
2013-09-16 10:56:00,57.3,47.6,29.94,NNW,329,7.0,7.0,70,0.00,,,0.02,Wunderground v.1.15,2013-09-16 14:56:00,
2013-09-16 11:56:00,55.6,49.5,29.94,WNW,296,5.0,7.0,80,0.00,,,0.02,Wunderground v.1.15,2013-09-16 15:56:00,
2013-09-16 12:06:00,56.2,48.7,29.95,West,279,8.0,8.0,76,0.00,,,0.02,Wunderground v.1.15,2013-09-16 16:06:00,
2013-09-16 12:16:00,57.0,48.1,29.95,West,275,7.0,13.0,72,0.00,,,0.02,Wunderground v.1.15,2013-09-16 16:16:00,
2013-09-16 12:25:00,57.6,47.9,29.95,West,279,7.0,14.0,70,0.00,,,0.02,Wunderground v.1.15,2013-09-16 16:25:00,
2013-09-16 13:35:00,56.7,45.1,29.97,NW,314,11.0,11.0,65,0.00,,,0.02,Wunderground v.1.15,2013-09-16 17:35:00,
2013-09-16 14:56:00,57.5,39.0,29.98,West,277,7.0,13.0,50,0.00,,,0.02,Wunderground v.1.15,2013-09-16 18:56:00,
2013-09-16 16:36:00,55.4,35.5,29.99,NW,311,6.0,6.0,47,0.00,,,0.02,Wunderground v.1.15,2013-09-16 20:36:00,
2013-09-16 16:56:00,54.8,37.0,30.00,WNW,296,8.0,8.0,51,0.00,,,0.02,Wunderground v.1.15,2013-09-16 20:56:00,
2013-09-16 18:06:00,49.1,32.2,30.04,WNW,292,8.0,8.0,52,0.00,,,0.02,Wunderground v.1.15,2013-09-16 22:06:00,
2013-09-16 18:36:00,47.0,32.1,30.06,WNW,298,6.0,6.0,56,0.00,,,0.02,Wunderground v.1.15,2013-09-16 22:36:00,
2013-09-16 18:46:00,46.7,31.4,30.07,WNW,287,6.0,6.0,55,0.00,,,0.02,Wunderground v.1.15,2013-09-16 22:46:00,
2013-09-16 18:55:00,46.2,31.8,30.07,WNW,295,5.0,6.0,57,0.00,,,0.02,Wunderground v.1.15,2013-09-16 22:55:00,
2013-09-16 19:56:00,44.6,31.1,30.09,WNW,288,6.0,6.0,59,0.00,,,0.02,Wunderground v.1.15,2013-09-16 23:56:00,
2013-09-16 20:16:00,43.6,32.2,30.11,SW,233,2.0,2.0,64,0.00,,,0.02,Wunderground v.1.15,2013-09-17 00:16:00,
2013-09-16 20:36:00,43.3,31.5,30.12,NE,44,3.0,3.0,63,0.00,,,0.02,Wunderground v.1.15,2013-09-17 00:36:00,
2013-09-16 21:06:00,43.3,31.5,30.14,West,262,4.0,4.0,63,0.00,,,0.02,Wunderground v.1.15,2013-09-17 01:06:00,
2013-09-16 21:26:00,43.3,29.9,30.15,NE,42,6.0,6.0,59,0.00,,,0.02,Wunderground v.1.15,2013-09-17 01:26:00,
2013-09-16 21:46:00,43.5,28.4,30.16,NW,308,6.0,10.0,55,0.00,,,0.02,Wunderground v.1.15,2013-09-17 01:46:00,
2013-09-16 21:56:00,43.5,29.3,30.16,SSE,158,5.0,6.0,57,0.00,,,0.02,Wunderground v.1.15,2013-09-17 01:56:00,
2013-09-16 22:06:00,43.5,29.7,30.16,NNE,26,4.0,4.0,58,0.00,,,0.02,Wunderground v.1.15,2013-09-17 02:06:00,
2013-09-16 22:16:00,43.5,29.7,30.16,NNE,30,5.0,6.0,58,0.00,,,0.02,Wunderground v.1.15,2013-09-17 02:16:00,
2013-09-16 22:36:00,43.8,30.0,30.17,East,82,4.0,9.0,58,0.00,,,0.02,Wunderground v.1.15,2013-09-17 02:36:00,
2013-09-16 22:55:00,43.6,30.2,30.18,NNE,23,2.0,2.0,59,0.00,,,0.02,Wunderground v.1.15,2013-09-17 02:55:00,
2013-09-16 23:06:00,43.2,30.6,30.18,NE,35,2.0,2.0,61,0.00,,,0.02,Wunderground v.1.15,2013-09-17 03:06:00,
2013-09-16 23:16:00,42.9,30.4,30.19,NW,305,1.0,2.0,61,0.00,,,0.02,Wunderground v.1.15,2013-09-17 03:16:00,
2013-09-16 23:25:00,42.6,30.5,30.19,NW,307,0.0,0.0,62,0.00,,,0.02,Wunderground v.1.15,2013-09-17 03:25:00,
2013-09-16 23:36:00,42.3,30.6,30.19,NW,307,0.0,0.0,63,0.00,,,0.02,Wunderground v.1.15,2013-09-17 03:36:00,
2013-09-16 23:45:00,42.6,30.9,30.20,NNE,13,0.0,0.0,63,0.00,,,0.02,Wunderground v.1.15,2013-09-17 03:45:00,
2013-09-16 23:55:00,42.3,31.0,30.20,NNE,13,0.0,0.0,64,0.00,,,0.02,Wunderground v.1.15,2013-09-17 03:55:00,